sensor_id;sensor_type;location;lat;lon;timestamp;temperature;humidity
9537;DHT22;4807;48.024;11.726;2022-09-09T00:00:58;12.70;99.90
9537;DHT22;4807;48.024;11.726;2022-09-09T00:04:16;12.70;99.90
9537;DHT22;4807;48.024;11.726;2022-09-09T00:07:40;12.80;99.90
9537;DHT22;4807;48.024;11.726;2022-09-09T00:10:58;12.80;99.90
9537;DHT22;4807;48.024;11.726;2022-09-09T00:14:18;12.80;99.90
9537;DHT22;4807;48.024;11.726;2022-09-09T00:17:44;12.80;99.90
9537;DHT22;4807;48.024;11.726;2022-09-09T00:21:04;12.70;99.90
9537;DHT22;4807;48.024;11.726;2022-09-09T00:24:23;12.80;99.90
9537;DHT22;4807;48.024;11.726;2022-09-09T00:27:37;12.90;99.90
9537;DHT22;4807;48.024;11.726;2022-09-09T00:30:49;12.90;99.90
9537;DHT22;4807;48.024;11.726;2022-09-09T00:34:12;12.90;99.90
9537;DHT22;4807;48.024;11.726;2022-09-09T00:37:25;12.90;99.90
9537;DHT22;4807;48.024;11.726;2022-09-09T00:40:38;12.90;99.90
9537;DHT22;4807;48.024;11.726;2022-09-09T00:43:57;12.90;99.90
9537;DHT22;4807;48.024;11.726;2022-09-09T00:47:32;13.10;99.90
9537;DHT22;4807;48.024;11.726;2022-09-09T00:50:53;13.20;99.90
9537;DHT22;4807;48.024;11.726;2022-09-09T00:54:22;13.30;99.90
9537;DHT22;4807;48.024;11.726;2022-09-09T00:57:52;13.30;99.90
9537;DHT22;4807;48.024;11.726;2022-09-09T01:01:05;13.40;99.90
9537;DHT22;4807;48.024;11.726;2022-09-09T01:04:23;13.50;99.90
9537;DHT22;4807;48.024;11.726;2022-09-09T01:07:40;13.50;99.90
9537;DHT22;4807;48.024;11.726;2022-09-09T01:10:58;13.60;99.90
9537;DHT22;4807;48.024;11.726;2022-09-09T01:14:16;13.60;99.90
9537;DHT22;4807;48.024;11.726;2022-09-09T01:17:46;13.60;99.90
9537;DHT22;4807;48.024;11.726;2022-09-09T01:21:06;13.60;99.90
9537;DHT22;4807;48.024;11.726;2022-09-09T01:24:27;13.70;99.90
9537;DHT22;4807;48.024;11.726;2022-09-09T01:28:00;13.70;99.90
9537;DHT22;4807;48.024;11.726;2022-09-09T01:31:17;13.80;99.90
9537;DHT22;4807;48.024;11.726;2022-09-09T01:34:31;13.80;99.90
9537;DHT22;4807;48.024;11.726;2022-09-09T01:37:44;13.90;99.90
9537;DHT22;4807;48.024;11.726;2022-09-09T01:40:53;13.90;99.90
9537;DHT22;4807;48.024;11.726;2022-09-09T01:44:11;14.00;99.90
9537;DHT22;4807;48.024;11.726;2022-09-09T01:47:24;14.00;99.90
9537;DHT22;4807;48.024;11.726;2022-09-09T01:50:52;14.10;99.90
9537;DHT22;4807;48.024;11.726;2022-09-09T01:54:02;14.00;99.90
9537;DHT22;4807;48.024;11.726;2022-09-09T01:57:17;14.10;99.90
9537;DHT22;4807;48.024;11.726;2022-09-09T02:00:34;14.10;99.90
9537;DHT22;4807;48.024;11.726;2022-09-09T02:03:51;14.10;99.90
9537;DHT22;4807;48.024;11.726;2022-09-09T02:07:02;14.20;99.90
9537;DHT22;4807;48.024;11.726;2022-09-09T02:10:22;14.10;99.90
9537;DHT22;4807;48.024;11.726;2022-09-09T02:13:51;14.10;99.90
9537;DHT22;4807;48.024;11.726;2022-09-09T02:17:09;14.10;99.90
9537;DHT22;4807;48.024;11.726;2022-09-09T02:20:33;14.10;99.90
9537;DHT22;4807;48.024;11.726;2022-09-09T02:23:46;14.00;99.90
9537;DHT22;4807;48.024;11.726;2022-09-09T02:27:01;13.90;99.90
9537;DHT22;4807;48.024;11.726;2022-09-09T02:30:16;13.80;99.90
9537;DHT22;4807;48.024;11.726;2022-09-09T02:33:35;13.80;99.90
9537;DHT22;4807;48.024;11.726;2022-09-09T02:36:48;13.70;99.90
9537;DHT22;4807;48.024;11.726;2022-09-09T02:39:58;13.70;99.90
9537;DHT22;4807;48.024;11.726;2022-09-09T02:43:08;13.70;99.90
9537;DHT22;4807;48.024;11.726;2022-09-09T02:46:28;13.70;99.90
9537;DHT22;4807;48.024;11.726;2022-09-09T02:49:56;13.60;99.90
9537;DHT22;4807;48.024;11.726;2022-09-09T02:53:16;13.60;99.90
9537;DHT22;4807;48.024;11.726;2022-09-09T02:56:31;13.60;99.90
9537;DHT22;4807;48.024;11.726;2022-09-09T02:59:50;13.60;99.90
9537;DHT22;4807;48.024;11.726;2022-09-09T03:02:59;13.50;99.90
9537;DHT22;4807;48.024;11.726;2022-09-09T03:06:09;13.60;99.90
9537;DHT22;4807;48.024;11.726;2022-09-09T03:09:19;13.60;99.90
9537;DHT22;4807;48.024;11.726;2022-09-09T03:12:29;13.50;99.90
9537;DHT22;4807;48.024;11.726;2022-09-09T03:15:39;13.50;99.90
9537;DHT22;4807;48.024;11.726;2022-09-09T03:18:53;13.50;99.90
9537;DHT22;4807;48.024;11.726;2022-09-09T03:22:03;13.60;99.90
9537;DHT22;4807;48.024;11.726;2022-09-09T03:25:15;13.60;99.90
9537;DHT22;4807;48.024;11.726;2022-09-09T03:28:26;13.60;99.90
9537;DHT22;4807;48.024;11.726;2022-09-09T03:31:39;13.60;99.90
9537;DHT22;4807;48.024;11.726;2022-09-09T03:34:50;13.50;99.90
9537;DHT22;4807;48.024;11.726;2022-09-09T03:38:00;13.40;99.90
9537;DHT22;4807;48.024;11.726;2022-09-09T03:41:11;13.30;99.90
9537;DHT22;4807;48.024;11.726;2022-09-09T03:44:20;13.30;99.90
9537;DHT22;4807;48.024;11.726;2022-09-09T03:47:28;13.20;99.90
9537;DHT22;4807;48.024;11.726;2022-09-09T03:50:47;13.00;99.90
9537;DHT22;4807;48.024;11.726;2022-09-09T03:53:57;13.00;99.90
9537;DHT22;4807;48.024;11.726;2022-09-09T03:57:07;12.90;99.90
9537;DHT22;4807;48.024;11.726;2022-09-09T04:00:16;12.90;99.90
9537;DHT22;4807;48.024;11.726;2022-09-09T04:03:31;12.90;99.90
9537;DHT22;4807;48.024;11.726;2022-09-09T04:06:40;12.90;99.90
9537;DHT22;4807;48.024;11.726;2022-09-09T04:09:50;13.00;99.90
9537;DHT22;4807;48.024;11.726;2022-09-09T04:12:59;13.10;99.90
9537;DHT22;4807;48.024;11.726;2022-09-09T04:16:10;13.10;99.90
9537;DHT22;4807;48.024;11.726;2022-09-09T04:19:21;13.20;99.90
9537;DHT22;4807;48.024;11.726;2022-09-09T04:22:30;13.20;99.90
9537;DHT22;4807;48.024;11.726;2022-09-09T04:25:44;13.20;99.90
9537;DHT22;4807;48.024;11.726;2022-09-09T04:28:54;13.30;99.90
9537;DHT22;4807;48.024;11.726;2022-09-09T04:32:02;13.30;99.90
9537;DHT22;4807;48.024;11.726;2022-09-09T04:35:12;13.30;99.90
9537;DHT22;4807;48.024;11.726;2022-09-09T04:38:21;13.20;99.90
9537;DHT22;4807;48.024;11.726;2022-09-09T04:41:35;13.20;99.90
9537;DHT22;4807;48.024;11.726;2022-09-09T04:44:45;13.20;99.90
9537;DHT22;4807;48.024;11.726;2022-09-09T04:47:55;13.20;99.90
9537;DHT22;4807;48.024;11.726;2022-09-09T04:51:05;13.30;99.90
9537;DHT22;4807;48.024;11.726;2022-09-09T04:54:16;13.40;99.90
9537;DHT22;4807;48.024;11.726;2022-09-09T04:57:27;13.40;99.90
9537;DHT22;4807;48.024;11.726;2022-09-09T05:00:35;13.40;99.90
9537;DHT22;4807;48.024;11.726;2022-09-09T05:03:49;13.40;99.90
9537;DHT22;4807;48.024;11.726;2022-09-09T05:07:01;13.50;99.90
9537;DHT22;4807;48.024;11.726;2022-09-09T05:10:09;13.50;99.90
9537;DHT22;4807;48.024;11.726;2022-09-09T05:13:23;13.50;99.90
9537;DHT22;4807;48.024;11.726;2022-09-09T05:16:31;13.50;99.90
9537;DHT22;4807;48.024;11.726;2022-09-09T05:19:41;13.50;99.90
9537;DHT22;4807;48.024;11.726;2022-09-09T05:22:52;13.50;99.90
9537;DHT22;4807;48.024;11.726;2022-09-09T05:26:03;13.60;99.90
9537;DHT22;4807;48.024;11.726;2022-09-09T05:29:14;13.80;99.90
9537;DHT22;4807;48.024;11.726;2022-09-09T05:32:24;14.00;99.90
9537;DHT22;4807;48.024;11.726;2022-09-09T05:35:32;14.10;99.90
9537;DHT22;4807;48.024;11.726;2022-09-09T05:38:41;14.30;99.90
9537;DHT22;4807;48.024;11.726;2022-09-09T05:41:50;14.40;99.90
9537;DHT22;4807;48.024;11.726;2022-09-09T05:45:01;14.40;99.90
9537;DHT22;4807;48.024;11.726;2022-09-09T05:48:09;14.30;99.90
9537;DHT22;4807;48.024;11.726;2022-09-09T05:51:19;14.30;99.90
9537;DHT22;4807;48.024;11.726;2022-09-09T05:54:29;14.40;99.90
9537;DHT22;4807;48.024;11.726;2022-09-09T05:57:41;14.40;99.90
9537;DHT22;4807;48.024;11.726;2022-09-09T06:00:51;14.40;99.90
9537;DHT22;4807;48.024;11.726;2022-09-09T06:04:02;14.50;99.90
9537;DHT22;4807;48.024;11.726;2022-09-09T06:07:12;14.60;99.90
9537;DHT22;4807;48.024;11.726;2022-09-09T06:10:22;14.70;99.90
9537;DHT22;4807;48.024;11.726;2022-09-09T06:13:32;14.70;99.90
9537;DHT22;4807;48.024;11.726;2022-09-09T06:16:43;14.70;99.90
9537;DHT22;4807;48.024;11.726;2022-09-09T06:19:57;14.70;99.90
9537;DHT22;4807;48.024;11.726;2022-09-09T06:23:06;14.70;99.90
9537;DHT22;4807;48.024;11.726;2022-09-09T06:26:18;14.70;99.90
9537;DHT22;4807;48.024;11.726;2022-09-09T06:29:29;14.60;99.90
9537;DHT22;4807;48.024;11.726;2022-09-09T06:32:39;14.60;99.90
9537;DHT22;4807;48.024;11.726;2022-09-09T06:35:51;14.50;99.90
9537;DHT22;4807;48.024;11.726;2022-09-09T06:39:01;14.50;99.90
9537;DHT22;4807;48.024;11.726;2022-09-09T06:42:11;14.60;99.90
9537;DHT22;4807;48.024;11.726;2022-09-09T06:45:28;14.70;99.90
9537;DHT22;4807;48.024;11.726;2022-09-09T06:48:40;14.70;99.90
9537;DHT22;4807;48.024;11.726;2022-09-09T06:51:53;14.80;99.90
9537;DHT22;4807;48.024;11.726;2022-09-09T06:55:02;14.80;99.90
9537;DHT22;4807;48.024;11.726;2022-09-09T06:58:12;14.80;99.90
9537;DHT22;4807;48.024;11.726;2022-09-09T07:01:23;14.90;99.90
9537;DHT22;4807;48.024;11.726;2022-09-09T07:04:37;15.10;99.90
9537;DHT22;4807;48.024;11.726;2022-09-09T07:07:45;15.10;99.90
9537;DHT22;4807;48.024;11.726;2022-09-09T07:11:02;15.20;99.90
9537;DHT22;4807;48.024;11.726;2022-09-09T07:14:19;15.30;99.90
9537;DHT22;4807;48.024;11.726;2022-09-09T07:17:35;15.50;99.90
9537;DHT22;4807;48.024;11.726;2022-09-09T07:20:54;15.50;99.90
9537;DHT22;4807;48.024;11.726;2022-09-09T07:24:05;15.40;99.90
9537;DHT22;4807;48.024;11.726;2022-09-09T07:27:19;15.40;99.90
9537;DHT22;4807;48.024;11.726;2022-09-09T07:30:31;15.40;99.90
9537;DHT22;4807;48.024;11.726;2022-09-09T07:33:40;15.40;99.90
9537;DHT22;4807;48.024;11.726;2022-09-09T07:36:50;15.30;99.90
9537;DHT22;4807;48.024;11.726;2022-09-09T07:39:59;15.20;99.90
9537;DHT22;4807;48.024;11.726;2022-09-09T07:43:11;15.30;99.90
9537;DHT22;4807;48.024;11.726;2022-09-09T07:46:25;15.20;99.90
9537;DHT22;4807;48.024;11.726;2022-09-09T07:49:35;15.20;99.90
9537;DHT22;4807;48.024;11.726;2022-09-09T07:52:46;15.10;99.90
9537;DHT22;4807;48.024;11.726;2022-09-09T07:55:55;15.10;99.90
9537;DHT22;4807;48.024;11.726;2022-09-09T07:59:11;15.10;99.90
9537;DHT22;4807;48.024;11.726;2022-09-09T08:02:23;15.00;99.90
9537;DHT22;4807;48.024;11.726;2022-09-09T08:05:32;15.00;99.90
9537;DHT22;4807;48.024;11.726;2022-09-09T08:08:43;14.90;99.90
9537;DHT22;4807;48.024;11.726;2022-09-09T08:11:52;14.70;99.90
9537;DHT22;4807;48.024;11.726;2022-09-09T08:15:04;14.70;99.90
9537;DHT22;4807;48.024;11.726;2022-09-09T08:18:13;14.80;99.90
9537;DHT22;4807;48.024;11.726;2022-09-09T08:21:28;14.80;99.90
9537;DHT22;4807;48.024;11.726;2022-09-09T08:24:41;14.90;99.90
9537;DHT22;4807;48.024;11.726;2022-09-09T08:27:50;14.90;99.90
9537;DHT22;4807;48.024;11.726;2022-09-09T08:31:06;15.10;99.90
9537;DHT22;4807;48.024;11.726;2022-09-09T08:34:20;15.30;99.90
9537;DHT22;4807;48.024;11.726;2022-09-09T08:37:30;15.40;99.90
9537;DHT22;4807;48.024;11.726;2022-09-09T08:40:44;15.30;99.90
9537;DHT22;4807;48.024;11.726;2022-09-09T08:44:05;15.30;99.90
9537;DHT22;4807;48.024;11.726;2022-09-09T08:47:24;15.30;99.90
9537;DHT22;4807;48.024;11.726;2022-09-09T08:50:44;15.30;99.90
9537;DHT22;4807;48.024;11.726;2022-09-09T08:54:03;15.20;99.90
9537;DHT22;4807;48.024;11.726;2022-09-09T08:57:20;15.20;99.90
9537;DHT22;4807;48.024;11.726;2022-09-09T09:00:40;15.30;99.90
9537;DHT22;4807;48.024;11.726;2022-09-09T09:04:05;15.30;99.90
9537;DHT22;4807;48.024;11.726;2022-09-09T09:07:35;15.30;99.90
9537;DHT22;4807;48.024;11.726;2022-09-09T09:10:59;15.20;99.90
9537;DHT22;4807;48.024;11.726;2022-09-09T09:14:15;15.30;99.90
9537;DHT22;4807;48.024;11.726;2022-09-09T09:17:33;15.50;99.90
9537;DHT22;4807;48.024;11.726;2022-09-09T09:20:53;15.60;99.90
9537;DHT22;4807;48.024;11.726;2022-09-09T09:24:15;15.60;99.90
9537;DHT22;4807;48.024;11.726;2022-09-09T09:27:32;15.70;99.90
9537;DHT22;4807;48.024;11.726;2022-09-09T09:30:51;15.60;99.90
9537;DHT22;4807;48.024;11.726;2022-09-09T09:34:05;15.60;99.90
9537;DHT22;4807;48.024;11.726;2022-09-09T09:37:17;15.50;99.90
9537;DHT22;4807;48.024;11.726;2022-09-09T09:40:36;15.50;99.90
9537;DHT22;4807;48.024;11.726;2022-09-09T09:43:53;15.50;99.90
9537;DHT22;4807;48.024;11.726;2022-09-09T09:47:10;15.70;99.90
9537;DHT22;4807;48.024;11.726;2022-09-09T09:50:24;15.90;99.90
9537;DHT22;4807;48.024;11.726;2022-09-09T09:53:36;16.00;99.90
9537;DHT22;4807;48.024;11.726;2022-09-09T09:56:49;16.30;99.90
9537;DHT22;4807;48.024;11.726;2022-09-09T10:00:04;16.80;99.90
9537;DHT22;4807;48.024;11.726;2022-09-09T10:03:28;17.30;99.90
9537;DHT22;4807;48.024;11.726;2022-09-09T10:06:40;17.70;99.90
9537;DHT22;4807;48.024;11.726;2022-09-09T10:09:52;17.90;99.90
9537;DHT22;4807;48.024;11.726;2022-09-09T10:13:05;18.00;99.90
9537;DHT22;4807;48.024;11.726;2022-09-09T10:16:31;18.00;99.90
9537;DHT22;4807;48.024;11.726;2022-09-09T10:23:45;17.70;99.90
9537;DHT22;4807;48.024;11.726;2022-09-09T10:27:15;17.50;99.90
9537;DHT22;4807;48.024;11.726;2022-09-09T10:30:39;17.70;99.90
9537;DHT22;4807;48.024;11.726;2022-09-09T10:34:02;17.90;99.90
9537;DHT22;4807;48.024;11.726;2022-09-09T10:37:41;18.00;99.90
9537;DHT22;4807;48.024;11.726;2022-09-09T10:41:24;18.00;99.90
9537;DHT22;4807;48.024;11.726;2022-09-09T10:45:04;17.60;99.90
9537;DHT22;4807;48.024;11.726;2022-09-09T10:48:31;17.30;99.90
9537;DHT22;4807;48.024;11.726;2022-09-09T10:51:58;16.90;99.90
9537;DHT22;4807;48.024;11.726;2022-09-09T10:55:17;16.90;99.90
9537;DHT22;4807;48.024;11.726;2022-09-09T10:58:31;16.80;99.90
9537;DHT22;4807;48.024;11.726;2022-09-09T11:01:49;17.00;99.90
9537;DHT22;4807;48.024;11.726;2022-09-09T11:05:04;17.00;99.90
9537;DHT22;4807;48.024;11.726;2022-09-09T11:08:18;17.30;99.90
9537;DHT22;4807;48.024;11.726;2022-09-09T11:11:34;17.40;99.90
9537;DHT22;4807;48.024;11.726;2022-09-09T11:14:54;17.40;99.90
9537;DHT22;4807;48.024;11.726;2022-09-09T11:18:15;15.00;99.90
9537;DHT22;4807;48.024;11.726;2022-09-09T11:21:36;17.20;99.90
9537;DHT22;4807;48.024;11.726;2022-09-09T11:24:57;17.40;99.90
9537;DHT22;4807;48.024;11.726;2022-09-09T11:28:38;17.50;99.90
9537;DHT22;4807;48.024;11.726;2022-09-09T11:32:09;17.70;99.90
9537;DHT22;4807;48.024;11.726;2022-09-09T11:35:37;18.00;99.90
9537;DHT22;4807;48.024;11.726;2022-09-09T11:39:00;18.30;99.90
9537;DHT22;4807;48.024;11.726;2022-09-09T11:42:24;18.70;99.90
9537;DHT22;4807;48.024;11.726;2022-09-09T11:45:35;19.00;99.90
9537;DHT22;4807;48.024;11.726;2022-09-09T11:48:45;19.10;99.90
9537;DHT22;4807;48.024;11.726;2022-09-09T11:52:11;19.10;99.90
9537;DHT22;4807;48.024;11.726;2022-09-09T11:55:25;18.90;99.90
9537;DHT22;4807;48.024;11.726;2022-09-09T11:58:42;19.00;99.90
9537;DHT22;4807;48.024;11.726;2022-09-09T12:02:12;19.30;99.90
9537;DHT22;4807;48.024;11.726;2022-09-09T12:05:29;19.50;99.90
9537;DHT22;4807;48.024;11.726;2022-09-09T12:08:51;19.60;99.90
9537;DHT22;4807;48.024;11.726;2022-09-09T12:12:20;19.80;99.90
9537;DHT22;4807;48.024;11.726;2022-09-09T12:15:34;19.80;99.90
9537;DHT22;4807;48.024;11.726;2022-09-09T12:18:44;19.80;99.90
9537;DHT22;4807;48.024;11.726;2022-09-09T12:22:00;19.70;99.90
9537;DHT22;4807;48.024;11.726;2022-09-09T12:25:23;19.70;99.90
9537;DHT22;4807;48.024;11.726;2022-09-09T12:28:46;19.70;99.90
9537;DHT22;4807;48.024;11.726;2022-09-09T12:32:07;19.60;99.90
9537;DHT22;4807;48.024;11.726;2022-09-09T12:35:21;19.70;99.90
9537;DHT22;4807;48.024;11.726;2022-09-09T12:38:36;21.00;99.90
9537;DHT22;4807;48.024;11.726;2022-09-09T12:41:54;20.10;99.80
9537;DHT22;4807;48.024;11.726;2022-09-09T12:45:15;20.10;99.90
9537;DHT22;4807;48.024;11.726;2022-09-09T12:48:29;20.30;99.80
9537;DHT22;4807;48.024;11.726;2022-09-09T12:51:43;23.40;99.90
9537;DHT22;4807;48.024;11.726;2022-09-09T12:54:51;20.30;99.10
9537;DHT22;4807;48.024;11.726;2022-09-09T12:58:02;20.40;99.30
9537;DHT22;4807;48.024;11.726;2022-09-09T13:01:21;20.40;99.00
9537;DHT22;4807;48.024;11.726;2022-09-09T13:04:32;20.60;98.10
9537;DHT22;4807;48.024;11.726;2022-09-09T13:07:42;20.40;98.80
9537;DHT22;4807;48.024;11.726;2022-09-09T13:10:53;20.40;98.70
9537;DHT22;4807;48.024;11.726;2022-09-09T13:14:14;20.30;98.80
9537;DHT22;4807;48.024;11.726;2022-09-09T13:17:27;20.10;98.90
9537;DHT22;4807;48.024;11.726;2022-09-09T13:20:36;20.10;99.60
9537;DHT22;4807;48.024;11.726;2022-09-09T13:23:50;19.90;99.30
9537;DHT22;4807;48.024;11.726;2022-09-09T13:27:01;20.00;99.60
9537;DHT22;4807;48.024;11.726;2022-09-09T13:30:22;19.70;98.20
9537;DHT22;4807;48.024;11.726;2022-09-09T13:33:33;18.90;99.00
9537;DHT22;4807;48.024;11.726;2022-09-09T13:36:47;18.60;99.70
9537;DHT22;4807;48.024;11.726;2022-09-09T13:39:58;18.50;99.90
9537;DHT22;4807;48.024;11.726;2022-09-09T13:43:17;18.40;99.90
9537;DHT22;4807;48.024;11.726;2022-09-09T13:46:34;18.20;99.90
9537;DHT22;4807;48.024;11.726;2022-09-09T13:49:43;18.00;99.90
9537;DHT22;4807;48.024;11.726;2022-09-09T13:52:53;18.10;99.90
9537;DHT22;4807;48.024;11.726;2022-09-09T13:56:07;18.20;99.90
9537;DHT22;4807;48.024;11.726;2022-09-09T13:59:19;18.10;99.90
9537;DHT22;4807;48.024;11.726;2022-09-09T14:02:28;17.90;99.90
9537;DHT22;4807;48.024;11.726;2022-09-09T14:05:38;17.70;99.90
9537;DHT22;4807;48.024;11.726;2022-09-09T14:08:47;17.70;99.90
9537;DHT22;4807;48.024;11.726;2022-09-09T14:11:57;17.30;99.90
9537;DHT22;4807;48.024;11.726;2022-09-09T14:15:09;17.30;99.90
9537;DHT22;4807;48.024;11.726;2022-09-09T14:18:19;17.30;99.90
9537;DHT22;4807;48.024;11.726;2022-09-09T14:21:29;17.30;99.90
9537;DHT22;4807;48.024;11.726;2022-09-09T14:24:37;17.30;99.90
9537;DHT22;4807;48.024;11.726;2022-09-09T14:27:47;17.20;99.90
9537;DHT22;4807;48.024;11.726;2022-09-09T14:30:59;17.30;99.90
9537;DHT22;4807;48.024;11.726;2022-09-09T14:34:08;17.40;99.90
9537;DHT22;4807;48.024;11.726;2022-09-09T14:37:18;17.50;99.90
9537;DHT22;4807;48.024;11.726;2022-09-09T14:40:27;17.50;99.90
9537;DHT22;4807;48.024;11.726;2022-09-09T14:43:37;17.70;99.90
9537;DHT22;4807;48.024;11.726;2022-09-09T14:46:45;17.90;99.90
9537;DHT22;4807;48.024;11.726;2022-09-09T14:49:54;17.70;99.90
9537;DHT22;4807;48.024;11.726;2022-09-09T14:53:02;17.70;99.90
9537;DHT22;4807;48.024;11.726;2022-09-09T14:56:13;17.90;99.90
9537;DHT22;4807;48.024;11.726;2022-09-09T14:59:24;18.00;99.90
9537;DHT22;4807;48.024;11.726;2022-09-09T15:02:33;18.20;99.90
9537;DHT22;4807;48.024;11.726;2022-09-09T15:05:42;18.60;99.90
9537;DHT22;4807;48.024;11.726;2022-09-09T15:08:51;18.60;99.90
9537;DHT22;4807;48.024;11.726;2022-09-09T15:12:01;18.50;99.90
9537;DHT22;4807;48.024;11.726;2022-09-09T15:15:12;18.60;99.90
9537;DHT22;4807;48.024;11.726;2022-09-09T15:18:21;18.60;99.90
9537;DHT22;4807;48.024;11.726;2022-09-09T15:21:31;18.60;99.90
9537;DHT22;4807;48.024;11.726;2022-09-09T15:24:41;18.40;99.90
9537;DHT22;4807;48.024;11.726;2022-09-09T15:27:50;18.30;99.90
9537;DHT22;4807;48.024;11.726;2022-09-09T15:31:05;18.00;99.90
9537;DHT22;4807;48.024;11.726;2022-09-09T15:34:15;17.80;99.90
9537;DHT22;4807;48.024;11.726;2022-09-09T15:37:24;17.80;99.90
9537;DHT22;4807;48.024;11.726;2022-09-09T15:40:33;17.80;99.90
9537;DHT22;4807;48.024;11.726;2022-09-09T15:43:43;17.50;99.90
9537;DHT22;4807;48.024;11.726;2022-09-09T15:46:54;17.50;99.90
9537;DHT22;4807;48.024;11.726;2022-09-09T15:50:02;17.50;99.90
9537;DHT22;4807;48.024;11.726;2022-09-09T15:53:11;17.40;99.90
9537;DHT22;4807;48.024;11.726;2022-09-09T15:56:19;17.10;99.90
9537;DHT22;4807;48.024;11.726;2022-09-09T15:59:29;17.10;99.90
9537;DHT22;4807;48.024;11.726;2022-09-09T16:02:39;17.00;99.90
9537;DHT22;4807;48.024;11.726;2022-09-09T16:05:50;17.10;99.90
9537;DHT22;4807;48.024;11.726;2022-09-09T16:08:59;17.00;99.90
9537;DHT22;4807;48.024;11.726;2022-09-09T16:12:10;17.10;99.90
9537;DHT22;4807;48.024;11.726;2022-09-09T16:15:19;17.20;99.90
9537;DHT22;4807;48.024;11.726;2022-09-09T16:18:35;17.20;99.90
9537;DHT22;4807;48.024;11.726;2022-09-09T16:21:45;17.00;99.90
9537;DHT22;4807;48.024;11.726;2022-09-09T16:24:55;16.90;99.90
9537;DHT22;4807;48.024;11.726;2022-09-09T16:28:03;16.70;99.90
9537;DHT22;4807;48.024;11.726;2022-09-09T16:31:14;16.70;99.90
9537;DHT22;4807;48.024;11.726;2022-09-09T16:34:27;16.50;99.90
9537;DHT22;4807;48.024;11.726;2022-09-09T16:37:35;16.50;99.90
9537;DHT22;4807;48.024;11.726;2022-09-09T16:40:43;16.50;99.90
9537;DHT22;4807;48.024;11.726;2022-09-09T16:43:52;16.60;99.90
9537;DHT22;4807;48.024;11.726;2022-09-09T16:47:02;16.80;99.90
9537;DHT22;4807;48.024;11.726;2022-09-09T16:50:12;17.10;99.90
9537;DHT22;4807;48.024;11.726;2022-09-09T16:53:20;17.20;99.90
9537;DHT22;4807;48.024;11.726;2022-09-09T16:56:30;17.30;99.90
9537;DHT22;4807;48.024;11.726;2022-09-09T16:59:39;17.40;99.90
9537;DHT22;4807;48.024;11.726;2022-09-09T17:02:48;17.40;99.90
9537;DHT22;4807;48.024;11.726;2022-09-09T17:05:58;17.30;99.90
9537;DHT22;4807;48.024;11.726;2022-09-09T17:09:10;17.10;99.90
9537;DHT22;4807;48.024;11.726;2022-09-09T17:12:19;16.90;99.90
9537;DHT22;4807;48.024;11.726;2022-09-09T17:15:28;16.70;99.90
9537;DHT22;4807;48.024;11.726;2022-09-09T17:18:37;16.50;99.90
9537;DHT22;4807;48.024;11.726;2022-09-09T17:21:48;16.10;99.90
9537;DHT22;4807;48.024;11.726;2022-09-09T17:25:16;16.10;99.90
9537;DHT22;4807;48.024;11.726;2022-09-09T17:28:25;15.90;99.90
9537;DHT22;4807;48.024;11.726;2022-09-09T17:31:37;15.70;99.90
9537;DHT22;4807;48.024;11.726;2022-09-09T17:34:47;15.50;99.90
9537;DHT22;4807;48.024;11.726;2022-09-09T17:37:57;15.30;99.90
9537;DHT22;4807;48.024;11.726;2022-09-09T17:41:07;15.10;99.90
9537;DHT22;4807;48.024;11.726;2022-09-09T17:44:17;15.00;99.90
9537;DHT22;4807;48.024;11.726;2022-09-09T17:47:26;14.90;99.90
9537;DHT22;4807;48.024;11.726;2022-09-09T17:50:34;17.10;99.90
9537;DHT22;4807;48.024;11.726;2022-09-09T17:53:46;14.80;99.90
9537;DHT22;4807;48.024;11.726;2022-09-09T17:56:56;14.70;99.90
9537;DHT22;4807;48.024;11.726;2022-09-09T18:00:07;14.60;99.90
9537;DHT22;4807;48.024;11.726;2022-09-09T18:03:19;14.50;99.90
9537;DHT22;4807;48.024;11.726;2022-09-09T18:06:35;14.40;99.90
9537;DHT22;4807;48.024;11.726;2022-09-09T18:09:45;14.30;99.90
9537;DHT22;4807;48.024;11.726;2022-09-09T18:12:56;14.20;99.90
9537;DHT22;4807;48.024;11.726;2022-09-09T18:16:06;14.10;99.90
9537;DHT22;4807;48.024;11.726;2022-09-09T18:19:17;12.70;99.90
9537;DHT22;4807;48.024;11.726;2022-09-09T18:22:27;14.10;99.90
9537;DHT22;4807;48.024;11.726;2022-09-09T18:25:39;14.10;99.90
9537;DHT22;4807;48.024;11.726;2022-09-09T18:28:50;14.00;99.90
9537;DHT22;4807;48.024;11.726;2022-09-09T18:32:00;14.00;99.90
9537;DHT22;4807;48.024;11.726;2022-09-09T18:35:09;13.90;99.90
9537;DHT22;4807;48.024;11.726;2022-09-09T18:38:17;13.90;99.90
9537;DHT22;4807;48.024;11.726;2022-09-09T18:41:28;13.70;99.90
9537;DHT22;4807;48.024;11.726;2022-09-09T18:44:37;13.70;99.90
9537;DHT22;4807;48.024;11.726;2022-09-09T18:47:47;13.60;99.90
9537;DHT22;4807;48.024;11.726;2022-09-09T18:50:55;13.60;99.90
9537;DHT22;4807;48.024;11.726;2022-09-09T18:54:05;13.50;99.90
9537;DHT22;4807;48.024;11.726;2022-09-09T18:57:17;13.40;99.90
9537;DHT22;4807;48.024;11.726;2022-09-09T19:00:27;13.30;99.90
9537;DHT22;4807;48.024;11.726;2022-09-09T19:03:35;13.20;99.90
9537;DHT22;4807;48.024;11.726;2022-09-09T19:06:45;13.10;99.90
9537;DHT22;4807;48.024;11.726;2022-09-09T19:09:55;13.00;99.90
9537;DHT22;4807;48.024;11.726;2022-09-09T19:13:05;13.00;99.90
9537;DHT22;4807;48.024;11.726;2022-09-09T19:16:14;13.00;99.90
9537;DHT22;4807;48.024;11.726;2022-09-09T19:19:24;12.90;99.90
9537;DHT22;4807;48.024;11.726;2022-09-09T19:22:34;12.90;99.90
9537;DHT22;4807;48.024;11.726;2022-09-09T19:25:42;12.80;99.90
9537;DHT22;4807;48.024;11.726;2022-09-09T19:28:52;12.70;99.90
9537;DHT22;4807;48.024;11.726;2022-09-09T19:32:01;12.60;99.90
9537;DHT22;4807;48.024;11.726;2022-09-09T19:35:30;12.60;99.90
9537;DHT22;4807;48.024;11.726;2022-09-09T19:38:38;12.60;99.90
9537;DHT22;4807;48.024;11.726;2022-09-09T19:41:47;12.70;99.90
9537;DHT22;4807;48.024;11.726;2022-09-09T19:44:57;12.70;99.90
9537;DHT22;4807;48.024;11.726;2022-09-09T19:48:06;12.80;99.90
9537;DHT22;4807;48.024;11.726;2022-09-09T19:51:17;12.90;99.90
9537;DHT22;4807;48.024;11.726;2022-09-09T19:54:26;13.00;99.90
9537;DHT22;4807;48.024;11.726;2022-09-09T19:57:35;13.20;99.90
9537;DHT22;4807;48.024;11.726;2022-09-09T20:00:44;13.60;99.90
9537;DHT22;4807;48.024;11.726;2022-09-09T20:03:54;13.60;99.90
9537;DHT22;4807;48.024;11.726;2022-09-09T20:07:04;13.90;99.90
9537;DHT22;4807;48.024;11.726;2022-09-09T20:10:12;14.10;99.90
9537;DHT22;4807;48.024;11.726;2022-09-09T20:13:20;14.10;99.90
9537;DHT22;4807;48.024;11.726;2022-09-09T20:16:30;14.20;99.90
9537;DHT22;4807;48.024;11.726;2022-09-09T20:19:40;14.00;99.90
9537;DHT22;4807;48.024;11.726;2022-09-09T20:22:49;14.00;99.90
9537;DHT22;4807;48.024;11.726;2022-09-09T20:26:00;14.00;99.90
9537;DHT22;4807;48.024;11.726;2022-09-09T20:29:12;13.70;99.90
9537;DHT22;4807;48.024;11.726;2022-09-09T20:32:23;13.50;99.90
9537;DHT22;4807;48.024;11.726;2022-09-09T20:35:32;13.40;99.90
9537;DHT22;4807;48.024;11.726;2022-09-09T20:38:42;13.10;99.90
9537;DHT22;4807;48.024;11.726;2022-09-09T20:41:52;13.00;99.90
9537;DHT22;4807;48.024;11.726;2022-09-09T20:45:00;12.90;99.90